Time;durP1;ratioP1;P1;durP2;ratioP2;P2;SDS_P1;SDS_P2;PMS_P1;PMS_P2;Temp;Humidity;BMP_temperature;BMP_pressure;BME280_temperature;BME280_humidity;BME280_pressure;Samples;Min_cycle;Max_cycle;Signal;HPM_P1;HPM_P2
2024/02/19 00:00:11;;;;;;;5.32;0.68;;;;;;;3.92;64.22;102038.38;4948874;28;20537;-70
2024/02/19 00:02:42;;;;;;;4.60;0.30;;;;;;;3.64;64.70;102040.75;4955122;28;20086;-70
2024/02/19 00:05:08;;;;;;;6.63;0.40;;;;;;;4.02;63.76;102043.59;4907445;28;20709;-70
2024/02/19 00:07:39;;;;;;;8.20;0.88;;;;;;;3.46;64.67;102049.22;4936839;28;20030;-73
2024/02/19 00:10:17;;;;;;;3.70;0.30;;;;;;;3.80;64.32;102052.94;4960719;28;20077;-73
2024/02/19 00:12:45;;;;;;;6.95;0.40;;;;;;;3.72;64.02;102054.63;4955929;28;20045;-72
2024/02/19 00:15:21;;;;;;;6.28;1.08;;;;;;;3.67;64.14;102060.59;4935007;28;20116;-71
2024/02/19 00:17:47;;;;;;;0.85;0.15;;;;;;;3.64;64.72;102081.25;4919060;28;20034;-71
2024/02/19 00:20:16;;;;;;;5.28;0.28;;;;;;;3.70;64.15;102071.84;4942257;28;20395;-70
2024/02/19 00:22:41;;;;;;;5.22;0.43;;;;;;;3.66;63.89;102071.81;4949545;28;20042;-71
2024/02/19 00:25:10;;;;;;;11.63;0.50;;;;;;;3.56;63.94;102076.91;4940866;28;20455;-72
2024/02/19 00:27:41;;;;;;;4.80;0.50;;;;;;;3.71;63.64;102077.88;4949716;28;21843;-72
2024/02/19 00:30:10;;;;;;;7.38;0.30;;;;;;;3.87;63.39;102084.88;4898842;28;20129;-71
2024/02/19 00:32:38;;;;;;;11.07;0.47;;;;;;;3.74;63.68;102086.53;4931976;28;20030;-71
2024/02/19 00:35:08;;;;;;;3.80;0.57;;;;;;;3.57;64.17;102091.53;4942401;28;20062;-71
2024/02/19 00:37:33;;;;;;;12.18;0.65;;;;;;;3.45;64.12;102093.16;4934774;28;20092;-72
2024/02/19 00:40:04;;;;;;;6.57;0.75;;;;;;;3.90;62.72;102094.41;4913161;28;20125;-72
2024/02/19 00:42:32;;;;;;;6.03;0.45;;;;;;;3.57;63.74;102091.53;4923456;28;20578;-71
2024/02/19 00:45:00;;;;;;;2.33;0.90;;;;;;;3.45;64.51;102101.78;4941044;28;20133;-72
2024/02/19 00:47:30;;;;;;;5.72;0.82;;;;;;;3.67;64.19;102113.19;4948534;28;20129;-71
2024/02/19 00:49:59;;;;;;;6.07;0.60;;;;;;;3.27;65.12;102109.31;4947975;28;20038;-71
2024/02/19 00:52:29;;;;;;;10.48;0.50;;;;;;;3.72;64.33;102121.84;4950150;28;20770;-71
2024/02/19 00:55:02;;;;;;;6.00;1.00;;;;;;;3.43;65.43;102119.00;4934971;28;20046;-71
2024/02/19 00:57:30;;;;;;;7.80;1.00;;;;;;;3.89;64.13;102119.38;4949172;28;20517;-70
2024/02/19 00:59:55;;;;;;;6.68;1.35;;;;;;;3.41;65.29;102125.88;4902671;28;20049;-70
2024/02/19 01:02:23;;;;;;;4.28;0.65;;;;;;;3.73;64.83;102120.13;4954259;28;20066;-70
2024/02/19 01:04:52;;;;;;;7.82;0.57;;;;;;;3.77;64.40;102127.06;4937923;28;20185;-70
2024/02/19 01:07:37;;;;;;;6.40;0.50;;;;;;;3.84;64.45;102125.38;4946809;28;20061;-70
2024/02/19 01:10:05;;;;;;;9.70;0.85;;;;;;;3.65;64.82;102132.09;4951575;28;20072;-74
2024/02/19 01:12:38;;;;;;;4.78;0.15;;;;;;;3.81;63.89;102136.56;4945290;28;20042;-71
2024/02/19 01:15:06;;;;;;;5.70;0.30;;;;;;;3.92;63.66;102132.34;4926939;28;20124;-71
2024/02/19 01:17:31;;;;;;;11.88;0.57;;;;;;;3.45;65.08;102143.16;4944033;28;20547;-74
2024/02/19 01:19:58;;;;;;;7.35;0.70;;;;;;;3.76;64.31;102138.25;4916639;28;20054;-75
2024/02/19 01:22:27;;;;;;;5.25;0.40;;;;;;;3.70;64.56;102145.97;4956044;28;20570;-73
2024/02/19 01:24:56;;;;;;;6.30;0.30;;;;;;;3.70;64.40;102143.38;4945708;28;20054;-74
2024/02/19 01:27:24;;;;;;;4.13;0.50;;;;;;;3.68;64.23;102145.94;4939070;28;20408;-74
2024/02/19 01:30:07;;;;;;;8.38;0.52;;;;;;;3.75;63.41;102147.72;4938924;28;20074;-73
2024/02/19 01:32:35;;;;;;;9.40;0.10;;;;;;;3.87;63.74;102152.13;4925974;28;20030;-74
2024/02/19 01:35:04;;;;;;;7.07;0.68;;;;;;;3.57;64.68;102151.00;4921632;28;20043;-74
2024/02/19 01:37:32;;;;;;;3.72;0.40;;;;;;;3.65;65.14;102155.38;4928230;28;20026;-75
2024/02/19 01:40:10;;;;;;;5.57;0.25;;;;;;;3.76;64.84;102143.41;4923857;28;20045;-74
2024/02/19 01:42:38;;;;;;;8.77;1.40;;;;;;;4.05;63.69;102151.44;4940057;28;20029;-74
2024/02/19 01:45:07;;;;;;;8.07;0.80;;;;;;;3.50;65.79;102151.81;4916827;28;20068;-68
2024/02/19 01:47:37;;;;;;;2.35;0.20;;;;;;;3.98;64.71;102155.69;4942862;28;20677;-68
2024/02/19 01:50:05;;;;;;;8.32;0.50;;;;;;;3.56;65.60;102156.16;4950249;28;20070;-68
2024/02/19 01:52:49;;;;;;;;;;;;;;;;;;;;;
2024/02/19 01:55:18;;;;;;;4.82;0.10;;;;;;;3.93;64.87;102152.19;4944525;28;20125;-68
2024/02/19 01:57:51;;;;;;;4.57;0.40;;;;;;;3.58;65.92;102160.50;4930588;28;20322;-68
2024/02/19 02:00:22;;;;;;;5.80;0.28;;;;;;;3.78;65.44;102154.63;4922455;28;20563;-68
2024/02/19 02:02:57;;;;;;;8.35;0.22;;;;;;;3.96;64.86;102166.84;4917949;28;20579;-69
2024/02/19 02:05:26;;;;;;;3.80;0.20;;;;;;;3.84;65.63;102167.63;4928769;28;20488;-68
2024/02/19 02:08:05;;;;;;;16.30;0.70;;;;;;;3.44;67.34;102172.41;4948040;28;20082;-69
2024/02/19 02:10:31;;;;;;;8.93;0.38;;;;;;;3.94;65.77;102169.47;4942373;28;20125;-68
2024/02/19 02:12:59;;;;;;;5.53;0.90;;;;;;;4.05;65.35;102182.47;4946524;28;20038;-70
2024/02/19 02:15:29;;;;;;;3.15;0.70;;;;;;;3.67;66.14;102185.59;4959457;28;20034;-69
2024/02/19 02:17:57;;;;;;;8.50;0.57;;;;;;;3.84;66.00;102188.31;4953095;28;20906;-68
2024/02/19 02:20:23;;;;;;;5.95;0.20;;;;;;;3.91;65.76;102189.25;4952919;28;20031;-68
2024/02/19 02:22:56;;;;;;;10.00;1.52;;;;;;;3.50;67.43;102200.91;4955803;28;20023;-68
2024/02/19 02:25:29;;;;;;;7.57;1.08;;;;;;;3.79;66.64;102195.19;4946171;28;20053;-68
2024/02/19 02:28:02;;;;;;;7.53;0.40;;;;;;;3.75;66.27;102193.41;4952299;28;20471;-68
2024/02/19 02:30:35;;;;;;;6.75;0.57;;;;;;;4.09;65.37;102188.53;4937418;28;20050;-68
2024/02/19 02:33:03;;;;;;;9.00;2.00;;;;;;;4.11;65.08;102192.00;4944877;28;20142;-68
2024/02/19 02:35:31;;;;;;;9.38;0.68;;;;;;;3.89;65.79;102194.41;4958248;28;20029;-68
2024/02/19 02:37:59;;;;;;;8.43;0.80;;;;;;;3.85;66.41;102200.41;4950456;28;20253;-68
2024/02/19 02:40:32;;;;;;;7.30;0.30;;;;;;;3.71;66.86;102202.00;4957284;28;20486;-67
2024/02/19 02:43:05;;;;;;;5.30;0.40;;;;;;;3.72;66.38;102198.56;4951778;28;21190;-66
2024/02/19 02:45:30;;;;;;;9.85;0.32;;;;;;;3.96;65.91;102198.78;4956597;28;20074;-67
2024/02/19 02:48:01;;;;;;;3.65;0.30;;;;;;;4.38;64.84;102201.69;4951209;28;20445;-67
2024/02/19 02:50:31;;;;;;;12.02;0.60;;;;;;;4.10;65.61;102198.03;4952096;28;20030;-68
2024/02/19 02:52:56;;;;;;;7.40;0.20;;;;;;;3.84;66.07;102197.81;4936014;28;22036;-67
2024/02/19 02:55:27;;;;;;;8.65;0.30;;;;;;;3.51;67.82;102197.47;4914982;28;20544;-67
2024/02/19 02:57:53;;;;;;;5.00;0.20;;;;;;;3.69;67.51;102198.50;4931664;28;20038;-65
2024/02/19 03:00:29;;;;;;;8.02;1.05;;;;;;;4.02;66.41;102203.13;4933642;28;20603;-65
2024/02/19 03:02:55;;;;;;;7.57;0.47;;;;;;;3.91;66.86;102205.63;4944354;28;20022;-64
2024/02/19 03:05:23;;;;;;;9.48;0.40;;;;;;;4.21;65.82;102199.00;4940185;28;20061;-65
2024/02/19 03:07:54;;;;;;;2.22;0.20;;;;;;;3.75;67.83;102204.63;4948868;28;20037;-65
2024/02/19 03:10:33;;;;;;;3.70;0.13;;;;;;;4.17;66.17;102197.25;4959719;28;22135;-64
2024/02/19 03:13:02;;;;;;;4.13;0.10;;;;;;;4.20;66.21;102199.84;4943081;28;20034;-65
2024/02/19 03:15:33;;;;;;;5.38;0.85;;;;;;;3.96;66.21;102209.13;4917464;28;20042;-64
2024/02/19 03:18:01;;;;;;;21.13;0.65;;;;;;;3.85;66.75;102208.19;4930047;28;20034;-65
2024/02/19 03:20:27;;;;;;;4.55;0.32;;;;;;;4.05;66.46;102202.28;4937708;28;20045;-66
2024/02/19 03:22:53;;;;;;;2.80;0.50;;;;;;;4.21;65.42;102217.13;4935993;28;20027;-74
2024/02/19 03:25:23;;;;;;;9.02;0.85;;;;;;;4.03;66.19;102220.41;4914886;28;20929;-67
2024/02/19 03:27:53;;;;;;;7.43;0.93;;;;;;;4.25;65.69;102216.25;4948340;28;20038;-76
2024/02/19 03:30:24;;;;;;;4.53;0.40;;;;;;;4.25;65.34;102216.25;4953104;28;20130;-76
2024/02/19 03:32:51;;;;;;;7.75;0.40;;;;;;;4.21;65.44;102205.03;4962816;28;20030;-76
2024/02/19 03:35:19;;;;;;;5.18;0.70;;;;;;;4.66;64.07;102207.94;4908181;28;20061;-74
2024/02/19 03:37:50;;;;;;;7.15;0.45;;;;;;;4.33;64.85;102217.19;4918611;28;20030;-71
2024/02/19 03:40:21;;;;;;;5.53;0.50;;;;;;;4.22;65.15;102205.91;4937782;28;20148;-72
2024/02/19 03:42:48;;;;;;;5.03;0.38;;;;;;;4.17;66.09;102218.78;4950246;28;20037;-71
2024/02/19 03:45:19;;;;;;;6.93;0.60;;;;;;;4.49;64.98;102218.16;4920673;28;20169;-72
2024/02/19 03:47:47;;;;;;;3.13;0.50;;;;;;;4.49;64.83;102218.16;4955400;28;20065;-72
2024/02/19 03:50:16;;;;;;;5.93;0.40;;;;;;;4.19;66.27;102217.09;4945584;28;20653;-71
2024/02/19 03:52:47;;;;;;;6.70;0.45;;;;;;;4.07;65.79;102221.28;4955213;28;20225;-73
2024/02/19 03:55:14;;;;;;;5.13;0.35;;;;;;;4.04;66.45;102229.91;4907419;28;20055;-72
2024/02/19 03:57:44;;;;;;;6.57;0.28;;;;;;;4.50;65.25;102238.03;4956180;28;20030;-72
2024/02/19 04:00:14;;;;;;;2.70;0.10;;;;;;;4.49;65.08;102236.28;4934818;28;20121;-72
2024/02/19 04:02:47;;;;;;;7.03;0.20;;;;;;;4.47;65.11;102226.78;4971249;28;20085;-72
2024/02/19 04:05:12;;;;;;;1.77;0.10;;;;;;;4.67;64.90;102235.56;4950832;28;20109;-72
2024/02/19 04:07:40;;;;;;;2.67;0.43;;;;;;;4.53;64.67;102229.44;4934957;28;20022;-72
2024/02/19 04:10:06;;;;;;;2.78;0.15;;;;;;;4.81;64.34;102240.81;4950031;28;20054;-73
2024/02/19 04:12:31;;;;;;;4.72;0.55;;;;;;;4.86;64.16;102241.72;4946786;28;20629;-72
2024/02/19 04:15:12;;;;;;;;;;;;;;;;;;;;;
2024/02/19 04:17:43;;;;;;;4.78;0.30;;;;;;;4.74;64.73;102239.03;4956130;28;20065;-72
2024/02/19 04:20:15;;;;;;;6.88;0.30;;;;;;;4.95;63.41;102238.34;4931796;28;20730;-72
2024/02/19 04:22:53;;;;;;;3.53;0.57;;;;;;;5.00;63.84;102234.06;4936582;28;20041;-73
2024/02/19 04:25:19;;;;;;;4.22;0.20;;;;;;;4.92;64.17;102238.31;4926413;28;20042;-72
2024/02/19 04:27:44;;;;;;;8.55;0.32;;;;;;;5.20;63.19;102231.56;4921311;28;20093;-72
2024/02/19 04:30:15;;;;;;;8.18;0.30;;;;;;;5.21;63.02;102238.47;4925287;28;20799;-72
2024/02/19 04:32:42;;;;;;;5.03;0.45;;;;;;;4.95;64.08;102243.53;4920111;28;20034;-74
2024/02/19 04:35:15;;;;;;;4.47;0.43;;;;;;;4.79;64.11;102243.41;4928373;28;20038;-74
2024/02/19 04:37:43;;;;;;;4.93;0.47;;;;;;;4.93;63.97;102237.47;4956454;28;20133;-73
2024/02/19 04:40:19;;;;;;;6.78;0.35;;;;;;;4.69;64.71;102244.19;4957210;28;20073;-73
2024/02/19 04:42:44;;;;;;;7.38;0.77;;;;;;;5.18;63.72;102241.91;4973571;28;20670;-73
2024/02/19 04:45:23;;;;;;;6.05;0.70;;;;;;;5.20;63.07;102231.56;4936437;28;21038;-72
2024/02/19 04:47:49;;;;;;;4.28;0.30;;;;;;;4.88;64.10;102236.56;4955507;28;20049;-72
2024/02/19 04:50:22;;;;;;;5.82;0.35;;;;;;;5.05;63.95;102246.16;4932564;28;20042;-71
2024/02/19 04:52:48;;;;;;;15.93;0.22;;;;;;;5.11;63.26;102242.75;4952240;28;20034;-73
2024/02/19 04:55:21;;;;;;;4.63;0.57;;;;;;;4.96;63.65;102237.47;4920686;28;20696;-74
2024/02/19 04:57:49;;;;;;;6.30;0.45;;;;;;;4.94;64.40;102241.78;4940966;28;20702;-73
2024/02/19 05:00:15;;;;;;;8.50;0.40;;;;;;;4.99;63.93;102245.28;4913696;28;20137;-73
2024/02/19 05:02:42;;;;;;;2.97;0.40;;;;;;;5.01;63.74;102240.94;4956100;28;20039;-73
2024/02/19 05:05:13;;;;;;;2.60;0.25;;;;;;;5.32;62.58;102241.09;4929776;28;20568;-74
2024/02/19 05:07:41;;;;;;;5.20;0.43;;;;;;;5.23;63.03;102240.22;4929062;28;22044;-75
2024/02/19 05:10:07;;;;;;;4.45;0.43;;;;;;;5.17;62.90;102235.00;4944132;28;20058;-73
2024/02/19 05:12:42;;;;;;;7.22;0.30;;;;;;;5.14;63.55;102244.47;4947960;28;20402;-74
2024/02/19 05:15:11;;;;;;;3.95;0.45;;;;;;;5.05;63.54;102247.91;4950618;28;20047;-73
2024/02/19 05:17:44;;;;;;;5.13;0.40;;;;;;;5.24;62.96;102246.28;4952263;28;20591;-73
2024/02/19 05:20:19;;;;;;;4.90;0.45;;;;;;;4.96;63.59;102240.06;4942442;28;20057;-73
2024/02/19 05:22:47;;;;;;;5.50;0.80;;;;;;;5.18;62.82;102247.09;4955541;28;20073;-73
2024/02/19 05:25:13;;;;;;;7.97;0.40;;;;;;;4.53;65.17;102242.38;4941014;28;20089;-70
2024/02/19 05:27:41;;;;;;;11.57;1.25;;;;;;;4.37;64.97;102237.06;4956784;28;20082;-69
2024/02/19 05:30:12;;;;;;;3.97;0.60;;;;;;;4.81;64.23;102244.28;4907369;28;20073;-69
2024/02/19 05:32:53;;;;;;;9.50;0.32;;;;;;;5.03;63.25;102252.19;4950130;28;20141;-70
2024/02/19 05:35:24;;;;;;;4.80;0.50;;;;;;;4.87;63.98;102248.63;4952308;28;20062;-69
2024/02/19 05:37:49;;;;;;;7.10;1.23;;;;;;;4.93;63.29;102251.28;4938947;28;20682;-69
2024/02/19 05:40:15;;;;;;;5.95;0.30;;;;;;;5.07;63.21;102250.50;4905101;28;20074;-70
2024/02/19 05:42:40;;;;;;;2.70;0.25;;;;;;;4.84;64.04;102253.81;4954073;28;20165;-70
2024/02/19 05:45:06;;;;;;;4.45;0.43;;;;;;;4.89;63.52;102246.94;4947682;28;20061;-71
2024/02/19 05:47:33;;;;;;;11.55;0.93;;;;;;;4.73;64.50;102256.31;4932356;28;20036;-69
2024/02/19 05:50:03;;;;;;;3.95;0.50;;;;;;;5.03;63.41;102252.19;4954126;28;20050;-73
2024/02/19 05:52:30;;;;;;;7.85;0.35;;;;;;;4.83;63.82;102252.94;4957987;28;20034;-73
2024/02/19 05:54:58;;;;;;;6.72;0.40;;;;;;;4.85;63.96;102263.28;4945785;28;20042;-72
2024/02/19 05:57:24;;;;;;;5.57;1.02;;;;;;;4.98;63.38;102267.72;4910745;28;20037;-72
2024/02/19 05:59:50;;;;;;;9.93;0.75;;;;;;;5.12;63.00;102257.41;4918897;28;20682;-67
2024/02/19 06:02:15;;;;;;;5.50;0.80;;;;;;;4.94;63.60;102265.09;4930193;28;20090;-68
2024/02/19 06:04:41;;;;;;;4.70;0.73;;;;;;;4.98;63.50;102269.47;4934342;28;20038;-68
2024/02/19 06:07:06;;;;;;;15.40;0.68;;;;;;;4.95;63.62;102266.84;4921847;28;20045;-68
2024/02/19 06:09:32;;;;;;;9.50;0.70;;;;;;;4.84;64.04;102267.63;4953710;28;20058;-68
2024/02/19 06:11:58;;;;;;;9.80;0.60;;;;;;;4.89;63.45;102274.59;4961543;28;20038;-68
2024/02/19 06:14:25;;;;;;;5.60;0.75;;;;;;;5.04;63.11;102272.09;4932760;28;21195;-68
2024/02/19 06:16:51;;;;;;;7.97;0.73;;;;;;;4.99;63.50;102281.56;4957676;28;20022;-69
2024/02/19 06:19:17;;;;;;;4.78;0.38;;;;;;;4.58;64.27;102266.56;4951036;28;20057;-68
2024/02/19 06:21:43;;;;;;;4.65;0.40;;;;;;;5.20;62.71;102263.53;4952553;28;20022;-68
2024/02/19 06:24:09;;;;;;;3.95;0.43;;;;;;;5.08;62.52;102265.19;4950202;28;20062;-69
2024/02/19 06:26:34;;;;;;;10.18;0.77;;;;;;;5.03;62.85;102273.81;4953272;28;20605;-69
2024/02/19 06:29:03;;;;;;;4.60;1.17;;;;;;;4.88;63.07;102275.44;4921708;28;20050;-69
2024/02/19 06:31:28;;;;;;;6.57;0.50;;;;;;;4.83;63.52;102286.63;4947422;28;20038;-68
2024/02/19 06:33:55;;;;;;;23.77;1.23;;;;;;;4.78;64.22;102277.94;4957634;28;20061;-69
2024/02/19 06:36:21;;;;;;;12.95;0.95;;;;;;;5.13;63.15;102277.31;4945727;28;20038;-69
2024/02/19 06:38:46;;;;;;;9.73;0.50;;;;;;;4.84;63.66;102285.75;4954537;28;20031;-68
2024/02/19 06:41:12;;;;;;;11.65;1.15;;;;;;;5.18;62.93;102293.75;4951608;28;20031;-68
2024/02/19 06:43:37;;;;;;;13.05;1.05;;;;;;;5.18;62.96;102291.16;4934918;28;21627;-68
2024/02/19 06:46:03;;;;;;;6.53;0.82;;;;;;;5.07;63.39;102302.34;4973194;28;20037;-68
2024/02/19 06:48:28;;;;;;;14.77;1.80;;;;;;;4.76;63.65;102295.19;4945457;28;20409;-69
2024/02/19 06:50:56;;;;;;;26.02;2.13;;;;;;;4.91;63.10;102306.56;4961143;28;20033;-68
2024/02/19 06:53:25;;;;;;;8.50;0.95;;;;;;;5.00;63.67;102301.44;4945745;28;20049;-68
2024/02/19 06:55:50;;;;;;;17.38;1.02;;;;;;;4.97;63.53;102301.41;4959647;28;20033;-68
2024/02/19 06:58:16;;;;;;;14.00;1.98;;;;;;;5.04;63.29;102298.00;4946431;28;20221;-68
2024/02/19 07:00:41;;;;;;;11.45;0.70;;;;;;;4.91;63.74;102301.38;4938086;28;20585;-67
2024/02/19 07:03:07;;;;;;;17.65;1.50;;;;;;;5.04;63.02;102306.63;4939845;28;20711;-68
2024/02/19 07:05:35;;;;;;;19.33;1.73;;;;;;;5.29;62.64;102308.50;4942142;28;20072;-67
2024/02/19 07:08:01;;;;;;;7.97;0.68;;;;;;;4.95;63.34;102298.81;4970824;28;20038;-68
2024/02/19 07:10:26;;;;;;;13.73;1.48;;;;;;;4.16;65.42;102305.06;4929799;28;20113;-68
2024/02/19 07:12:51;;;;;;;8.18;1.55;;;;;;;4.68;64.58;102304.63;4940474;28;20030;-68
2024/02/19 07:15:17;;;;;;;16.90;1.50;;;;;;;4.89;63.44;102305.69;4947097;28;20571;-68
2024/02/19 07:17:43;;;;;;;19.38;2.70;;;;;;;4.86;63.48;102301.31;4933920;28;20496;-69
2024/02/19 07:20:08;;;;;;;20.67;2.08;;;;;;;5.03;62.89;102301.44;4938550;28;20046;-67
2024/02/19 07:22:34;;;;;;;12.35;1.42;;;;;;;4.83;63.81;102296.97;4932050;28;21171;-74
2024/02/19 07:25:00;;;;;;;21.55;1.98;;;;;;;4.90;63.42;102305.69;4939002;28;20044;-72
2024/02/19 07:27:26;;;;;;;24.65;2.60;;;;;;;5.20;62.10;102305.00;4913329;28;20026;-68
2024/02/19 07:29:53;;;;;;;13.45;1.75;;;;;;;5.43;61.74;102314.59;4942254;28;20141;-67
2024/02/19 07:32:20;;;;;;;13.93;1.58;;;;;;;5.40;61.76;102306.84;4934274;28;20041;-71
2024/02/19 07:34:45;;;;;;;32.47;3.53;;;;;;;5.10;62.47;102303.22;4953946;28;20376;-73
2024/02/19 07:37:11;;;;;;;24.85;2.30;;;;;;;4.97;62.70;102306.59;4925238;28;20117;-73
2024/02/19 07:39:41;;;;;;;23.50;3.90;;;;;;;4.57;64.26;102301.09;4946608;28;20559;-74
2024/02/19 07:42:09;;;;;;;21.65;1.60;;;;;;;5.46;62.37;102302.53;4956923;28;20038;-72
2024/02/19 07:44:35;;;;;;;19.27;1.73;;;;;;;5.54;61.89;102299.97;4932444;28;20280;-68
2024/02/19 07:47:03;;;;;;;12.27;1.75;;;;;;;5.70;61.91;102305.22;4954578;28;20117;-69
2024/02/19 07:49:29;;;;;;;22.38;2.75;;;;;;;5.90;60.96;102308.72;4921001;28;21127;-69
2024/02/19 07:51:54;;;;;;;14.13;1.60;;;;;;;5.86;60.93;102307.88;4940824;28;20041;-68
2024/02/19 07:54:20;;;;;;;24.55;2.58;;;;;;;5.80;60.97;102306.97;4947578;28;20054;-69
2024/02/19 07:56:45;;;;;;;12.40;2.00;;;;;;;5.71;61.84;102299.19;4949244;28;20121;-67
2024/02/19 07:59:11;;;;;;;19.25;3.17;;;;;;;5.67;61.57;102301.75;4930396;28;20118;-68
2024/02/19 08:01:40;;;;;;;11.52;2.40;;;;;;;5.92;61.08;102306.13;4908096;28;21584;-69
2024/02/19 08:04:05;;;;;;;18.48;1.80;;;;;;;6.01;60.87;102299.22;4953465;28;20118;-69
2024/02/19 08:06:31;;;;;;;24.25;1.95;;;;;;;5.79;61.38;102297.44;4945003;28;20046;-67
2024/02/19 08:08:59;;;;;;;22.15;2.05;;;;;;;5.72;61.54;102295.72;4936037;28;20571;-68
2024/02/19 08:11:27;;;;;;;23.70;1.90;;;;;;;5.50;62.96;102286.97;4942880;28;21257;-68
2024/02/19 08:13:53;;;;;;;15.10;2.03;;;;;;;5.56;62.12;102287.00;4924777;28;20088;-67
2024/02/19 08:16:18;;;;;;;17.02;2.83;;;;;;;5.44;62.50;102299.06;4950760;28;20132;-68
2024/02/19 08:18:44;;;;;;;10.90;2.35;;;;;;;5.41;62.71;102299.06;4923763;28;20057;-67
2024/02/19 08:21:10;;;;;;;13.32;1.77;;;;;;;5.37;62.70;102292.13;4953265;28;20036;-67
2024/02/19 08:23:36;;;;;;;21.70;2.78;;;;;;;5.59;62.23;102287.91;4931705;28;20090;-67
2024/02/19 08:26:02;;;;;;;12.40;1.30;;;;;;;5.52;62.82;102288.72;4932748;28;20665;-67
2024/02/19 08:28:27;;;;;;;19.75;2.85;;;;;;;5.58;62.85;102286.16;4931791;28;20050;-67
2024/02/19 08:30:57;;;;;;;14.52;2.03;;;;;;;5.65;62.37;102285.31;4940480;28;20070;-67
2024/02/19 08:33:23;;;;;;;19.38;2.55;;;;;;;5.70;61.98;102287.06;4949170;28;20882;-67
2024/02/19 08:35:51;;;;;;;16.67;2.55;;;;;;;5.70;62.13;102289.66;4928810;28;20199;-67
2024/02/19 08:38:17;;;;;;;13.45;2.42;;;;;;;5.97;61.38;102289.72;4938824;28;20031;-67
2024/02/19 08:40:43;;;;;;;27.60;3.88;;;;;;;5.95;61.07;102286.25;4927071;28;20120;-67
2024/02/19 08:43:11;;;;;;;12.55;2.08;;;;;;;5.93;61.40;102282.78;4948162;28;20304;-70
2024/02/19 08:45:39;;;;;;;25.00;2.30;;;;;;;5.83;61.87;102286.22;4940827;28;20030;-67
2024/02/19 08:48:05;;;;;;;20.45;2.20;;;;;;;5.76;61.88;102300.03;4954173;28;20054;-67
2024/02/19 08:50:31;;;;;;;13.98;2.15;;;;;;;5.18;63.51;102293.75;4927300;28;20057;-67
2024/02/19 08:53:03;;;;;;;17.45;3.53;;;;;;;5.65;62.90;102290.50;4920301;28;20530;-66
2024/02/19 08:55:31;;;;;;;26.42;4.10;;;;;;;5.17;63.90;102283.41;4947867;28;20038;-67
2024/02/19 08:57:56;;;;;;;27.50;3.97;;;;;;;5.48;63.02;102284.41;4952345;28;20072;-66
2024/02/19 09:00:22;;;;;;;33.47;3.65;;;;;;;5.69;63.01;102275.81;4939712;28;20133;-67
2024/02/19 09:02:47;;;;;;;19.17;5.35;;;;;;;5.73;62.81;102279.28;4937459;28;20034;-67
2024/02/19 09:05:19;;;;;;;18.73;4.32;;;;;;;5.51;63.65;102281.81;4934004;28;20235;-67
2024/02/19 09:07:46;;;;;;;17.08;4.68;;;;;;;5.48;63.90;102276.63;4944315;28;21200;-68
2024/02/19 09:10:14;;;;;;;16.73;4.05;;;;;;;6.00;62.26;102279.34;4945910;28;20042;-68
2024/02/19 09:12:39;;;;;;;16.15;5.20;;;;;;;5.86;62.90;102273.28;4928010;28;20038;-68
2024/02/19 09:15:05;;;;;;;17.23;4.60;;;;;;;6.13;61.76;102275.03;4954265;28;20058;-68
2024/02/19 09:17:31;;;;;;;23.92;5.43;;;;;;;6.33;61.48;102269.91;4946069;28;20035;-68
2024/02/19 09:19:56;;;;;;;22.88;4.72;;;;;;;6.07;61.90;102275.88;4941124;28;20097;-68
2024/02/19 09:22:22;;;;;;;25.55;5.85;;;;;;;6.38;61.14;102268.16;4955463;28;20033;-68
2024/02/19 09:24:48;;;;;;;17.35;4.10;;;;;;;5.99;62.33;102272.41;4927957;28;21329;-68
2024/02/19 09:27:16;;;;;;;20.27;4.63;;;;;;;5.90;62.88;102262.00;4936677;28;20058;-68
2024/02/19 09:29:42;;;;;;;24.63;5.55;;;;;;;6.16;61.84;102256.84;4914429;28;20133;-68
2024/02/19 09:32:08;;;;;;;32.05;6.15;;;;;;;6.18;62.06;102259.47;4922893;28;20162;-68
2024/02/19 09:34:34;;;;;;;23.70;5.97;;;;;;;6.47;60.98;102255.16;4918226;28;20294;-68
2024/02/19 09:37:00;;;;;;;12.23;4.07;;;;;;;6.09;61.93;102258.59;4950794;28;20117;-68
2024/02/19 09:39:27;;;;;;;11.98;5.28;;;;;;;6.19;62.42;102268.97;4953438;28;20050;-67
2024/02/19 09:41:53;;;;;;;23.98;4.88;;;;;;;6.50;61.46;102268.13;4946256;28;20132;-67
2024/02/19 09:44:18;;;;;;;24.90;4.60;;;;;;;6.70;61.00;102267.25;4955720;28;20133;-67
2024/02/19 09:46:45;;;;;;;17.98;3.40;;;;;;;6.00;62.34;102263.78;4944155;28;20792;-67
2024/02/19 09:49:13;;;;;;;17.95;5.30;;;;;;;6.83;60.57;102258.56;4969815;28;20034;-68
2024/02/19 09:51:46;;;;;;;16.77;3.35;;;;;;;6.82;60.94;102259.47;4947912;28;20049;-68
2024/02/19 09:54:12;;;;;;;23.33;4.63;;;;;;;6.79;60.63;102256.84;4938916;28;20066;-68
2024/02/19 09:56:39;;;;;;;14.02;4.43;;;;;;;6.39;61.73;102264.69;4918400;28;20035;-68
2024/02/19 09:59:05;;;;;;;17.33;4.18;;;;;;;6.14;62.42;102262.91;4935047;28;20073;-67
2024/02/19 10:01:31;;;;;;;13.02;4.22;;;;;;;6.66;61.52;102282.00;4952554;28;20050;-67
2024/02/19 10:03:57;;;;;;;16.65;3.45;;;;;;;6.96;60.42;102264.63;4945795;28;20050;-67
2024/02/19 10:06:33;;;;;;;10.63;2.47;;;;;;;7.03;60.23;102270.66;4944680;28;20105;-68
2024/02/19 10:09:06;;;;;;;17.75;2.80;;;;;;;7.27;59.95;102274.94;4906307;28;20042;-67
2024/02/19 10:11:33;;;;;;;14.85;3.55;;;;;;;6.95;60.09;102272.41;4954511;28;20098;-68
2024/02/19 10:13:59;;;;;;;13.70;2.53;;;;;;;7.11;59.89;102269.78;4947614;28;20038;-68
2024/02/19 10:16:24;;;;;;;16.73;3.20;;;;;;;6.71;60.90;102279.41;4954873;28;20089;-69
2024/02/19 10:18:52;;;;;;;10.05;2.47;;;;;;;6.24;62.03;102286.31;4898487;28;20080;-68
2024/02/19 10:21:18;;;;;;;15.73;3.00;;;;;;;6.57;61.13;102292.38;4950903;28;20073;-67
2024/02/19 10:23:46;;;;;;;15.15;3.05;;;;;;;6.66;61.04;102296.69;4944679;28;20050;-68
2024/02/19 10:26:12;;;;;;;14.82;1.85;;;;;;;6.50;61.62;102296.72;4955160;28;20038;-68
2024/02/19 10:28:39;;;;;;;14.07;1.67;;;;;;;6.23;62.19;102288.88;4945294;28;20069;-68
2024/02/19 10:31:05;;;;;;;11.23;1.92;;;;;;;6.16;62.73;102289.75;4955383;28;20046;-67
2024/02/19 10:33:35;;;;;;;16.20;2.50;;;;;;;6.47;61.58;102291.53;4953650;28;20050;-69
2024/02/19 10:36:02;;;;;;;13.60;2.28;;;;;;;6.04;62.42;102288.88;4932236;28;20046;-67
2024/02/19 10:38:28;;;;;;;10.23;1.75;;;;;;;6.26;62.03;102292.38;4955564;28;20042;-68
2024/02/19 10:40:54;;;;;;;10.88;1.73;;;;;;;6.35;61.56;102301.94;4947876;28;20248;-68
2024/02/19 10:43:21;;;;;;;11.55;2.35;;;;;;;6.45;61.50;102290.66;4954962;28;20117;-68
2024/02/19 10:45:47;;;;;;;12.25;1.42;;;;;;;6.57;60.61;102294.13;4951494;28;20038;-67
2024/02/19 10:48:14;;;;;;;13.68;1.85;;;;;;;6.12;62.16;102301.84;4940800;28;20046;-67
2024/02/19 10:50:40;;;;;;;16.10;2.30;;;;;;;6.83;60.78;102301.91;4940170;28;20213;-68
2024/02/19 10:53:06;;;;;;;12.52;2.22;;;;;;;6.14;63.06;102296.66;4939064;28;20084;-68
2024/02/19 10:55:35;;;;;;;8.20;2.55;;;;;;;6.47;62.31;102283.72;4957486;28;20041;-67
2024/02/19 10:58:01;;;;;;;8.18;1.13;;;;;;;6.59;62.45;102289.78;4927111;28;21087;-67
2024/02/19 11:00:27;;;;;;;12.70;1.33;;;;;;;6.97;61.45;102281.06;4939247;28;20042;-68
2024/02/19 11:03:04;;;;;;;10.43;1.80;;;;;;;7.40;60.68;102280.91;4935264;28;20041;-68
2024/02/19 11:05:34;;;;;;;11.00;2.03;;;;;;;6.97;60.91;102281.94;4954088;28;20853;-68
2024/02/19 11:08:03;;;;;;;9.60;1.23;;;;;;;7.27;60.75;102275.78;4906170;28;20408;-67
2024/02/19 11:10:41;;;;;;;10.35;1.55;;;;;;;7.29;60.84;102276.63;4932729;28;20026;-68
2024/02/19 11:13:07;;;;;;;4.03;1.15;;;;;;;6.86;60.86;102279.38;4925925;28;20270;-68
2024/02/19 11:15:39;;;;;;;9.63;1.85;;;;;;;6.83;61.41;102275.91;4919094;28;20541;-67
2024/02/19 11:18:15;;;;;;;6.97;1.33;;;;;;;6.70;61.65;102268.13;4931493;28;20976;-68
2024/02/19 11:20:41;;;;;;;9.75;1.88;;;;;;;6.70;61.82;102275.06;4955876;28;20062;-67
2024/02/19 11:23:17;;;;;;;8.32;0.85;;;;;;;6.90;61.69;102270.69;4958904;28;20026;-67
2024/02/19 11:25:48;;;;;;;9.70;1.20;;;;;;;6.60;62.16;102270.75;4958437;28;20041;-67
2024/02/19 11:28:13;;;;;;;5.70;0.98;;;;;;;7.19;61.17;102254.13;4957738;28;20091;-67
2024/02/19 11:30:39;;;;;;;5.65;1.80;;;;;;;7.15;60.47;102261.94;4939653;28;20936;-67
2024/02/19 11:33:06;;;;;;;13.25;2.70;;;;;;;6.59;62.04;102256.88;4945899;28;20042;-68
2024/02/19 11:35:37;;;;;;;12.63;1.80;;;;;;;7.02;61.07;102242.91;4957897;28;20034;-68